sensor_id;sensor_type;location;lat;lon;timestamp;pressure;altitude;pressure_sealevel;temperature;humidity
61906;BME280;47863;55.766;37.672;2023-11-18T00:01:16;100746.97;;;-4.95;72.79
61906;BME280;47863;55.766;37.672;2023-11-18T00:03:42;100766.06;;;-4.93;73.07
61906;BME280;47863;55.766;37.672;2023-11-18T00:06:07;100767.75;;;-4.91;72.85
61906;BME280;47863;55.766;37.672;2023-11-18T00:08:34;100743.81;;;-5.10;72.55
61906;BME280;47863;55.766;37.672;2023-11-18T00:10:59;100766.88;;;-4.91;73.07
61906;BME280;47863;55.766;37.672;2023-11-18T00:13:25;100749.81;;;-5.05;72.76
61906;BME280;47863;55.766;37.672;2023-11-18T00:15:54;100767.81;;;-4.94;72.84
61906;BME280;47863;55.766;37.672;2023-11-18T00:18:20;100763.69;;;-5.03;72.98
61906;BME280;47863;55.766;37.672;2023-11-18T00:20:46;100747.50;;;-5.17;72.94
61906;BME280;47863;55.766;37.672;2023-11-18T00:23:11;100752.72;;;-5.17;72.94
61906;BME280;47863;55.766;37.672;2023-11-18T00:25:37;100785.28;;;-4.96;73.18
61906;BME280;47863;55.766;37.672;2023-11-18T00:28:06;100783.44;;;-4.92;73.31
61906;BME280;47863;55.766;37.672;2023-11-18T00:30:34;100773.19;;;-5.00;73.18
61906;BME280;47863;55.766;37.672;2023-11-18T00:33:00;100751.81;;;-5.16;72.70
61906;BME280;47863;55.766;37.672;2023-11-18T00:35:26;100785.34;;;-4.97;72.80
61906;BME280;47863;55.766;37.672;2023-11-18T00:37:51;100787.09;;;-5.00;73.20
61906;BME280;47863;55.766;37.672;2023-11-18T00:40:17;100783.72;;;-5.03;73.28
61906;BME280;47863;55.766;37.672;2023-11-18T00:42:44;100754.59;;;-5.24;73.16
61906;BME280;47863;55.766;37.672;2023-11-18T00:45:10;100787.34;;;-5.09;73.40
61906;BME280;47863;55.766;37.672;2023-11-18T00:47:41;100768.59;;;-5.25;73.20
61906;BME280;47863;55.766;37.672;2023-11-18T00:50:07;100776.41;;;-5.25;73.21
61906;BME280;47863;55.766;37.672;2023-11-18T00:52:36;100797.13;;;-5.17;73.48
61906;BME280;47863;55.766;37.672;2023-11-18T00:55:05;100796.31;;;-5.19;73.09
61906;BME280;47863;55.766;37.672;2023-11-18T00:57:32;100798.09;;;-5.21;73.43
61906;BME280;47863;55.766;37.672;2023-11-18T00:59:57;100784.22;;;-5.23;73.31
61906;BME280;47863;55.766;37.672;2023-11-18T01:02:24;100780.69;;;-5.22;73.49
61906;BME280;47863;55.766;37.672;2023-11-18T01:04:49;100797.13;;;-5.17;73.45
61906;BME280;47863;55.766;37.672;2023-11-18T01:07:16;100792.91;;;-5.23;73.38
61906;BME280;47863;55.766;37.672;2023-11-18T01:09:42;100802.63;;;-5.29;73.04
61906;BME280;47863;55.766;37.672;2023-11-18T01:12:08;100800.06;;;-5.31;73.42
61906;BME280;47863;55.766;37.672;2023-11-18T01:14:36;100807.00;;;-5.30;73.58
61906;BME280;47863;55.766;37.672;2023-11-18T01:17:04;100804.41;;;-5.31;73.54
61906;BME280;47863;55.766;37.672;2023-11-18T01:19:30;100809.72;;;-5.34;73.76
61906;BME280;47863;55.766;37.672;2023-11-18T01:21:55;100760.84;;;-5.67;73.59
61906;BME280;47863;55.766;37.672;2023-11-18T01:24:21;100813.34;;;-5.42;73.85
61906;BME280;47863;55.766;37.672;2023-11-18T01:26:47;100798.78;;;-5.50;73.87
61906;BME280;47863;55.766;37.672;2023-11-18T01:29:13;100787.75;;;-5.65;73.85
61906;BME280;47863;55.766;37.672;2023-11-18T01:31:39;100799.81;;;-5.59;73.62
61906;BME280;47863;55.766;37.672;2023-11-18T01:34:07;100793.91;;;-5.67;73.92
61906;BME280;47863;55.766;37.672;2023-11-18T01:36:37;100823.25;;;-5.56;73.83
61906;BME280;47863;55.766;37.672;2023-11-18T01:39:03;100818.91;;;-5.57;73.90
61906;BME280;47863;55.766;37.672;2023-11-18T01:41:30;100819.00;;;-5.60;74.14
61906;BME280;47863;55.766;37.672;2023-11-18T01:43:58;100817.41;;;-5.67;73.64
61906;BME280;47863;55.766;37.672;2023-11-18T01:46:24;100813.16;;;-5.73;73.60
61906;BME280;47863;55.766;37.672;2023-11-18T01:48:50;100816.72;;;-5.75;73.67
61906;BME280;47863;55.766;37.672;2023-11-18T01:51:18;100811.66;;;-5.83;74.15
61906;BME280;47863;55.766;37.672;2023-11-18T01:53:47;100787.50;;;-5.93;73.75
61906;BME280;47863;55.766;37.672;2023-11-18T01:56:13;100814.97;;;-5.75;74.19
61906;BME280;47863;55.766;37.672;2023-11-18T01:58:40;100810.56;;;-5.73;74.15
61906;BME280;47863;55.766;37.672;2023-11-18T02:01:06;100814.78;;;-5.67;73.77
61906;BME280;47863;55.766;37.672;2023-11-18T02:03:34;100823.47;;;-5.67;74.09
61906;BME280;47863;55.766;37.672;2023-11-18T02:06:02;100822.63;;;-5.67;73.56
61906;BME280;47863;55.766;37.672;2023-11-18T02:08:30;100788.28;;;-5.88;73.55
61906;BME280;47863;55.766;37.672;2023-11-18T02:11:16;100819.31;;;-5.75;73.94
61906;BME280;47863;55.766;37.672;2023-11-18T02:13:47;100817.66;;;-5.78;73.55
61906;BME280;47863;55.766;37.672;2023-11-18T02:16:14;100796.28;;;-5.95;74.14
61906;BME280;47863;55.766;37.672;2023-11-18T02:18:41;100804.97;;;-5.95;74.26
61906;BME280;47863;55.766;37.672;2023-11-18T02:21:10;100804.13;;;-5.95;74.50
61906;BME280;47863;55.766;37.672;2023-11-18T02:23:37;100816.06;;;-5.87;74.33
61906;BME280;47863;55.766;37.672;2023-11-18T02:26:03;100813.38;;;-5.82;74.43
61906;BME280;47863;55.766;37.672;2023-11-18T02:28:29;100814.97;;;-5.75;74.49
61906;BME280;47863;55.766;37.672;2023-11-18T02:30:56;100818.38;;;-5.71;74.50
61906;BME280;47863;55.766;37.672;2023-11-18T02:33:31;100813.16;;;-5.73;73.98
61906;BME280;47863;55.766;37.672;2023-11-18T02:36:05;100815.75;;;-5.71;74.37
61906;BME280;47863;55.766;37.672;2023-11-18T02:38:31;100819.06;;;-5.65;75.34
61906;BME280;47863;55.766;37.672;2023-11-18T02:41:06;100821.78;;;-5.68;74.31
61906;BME280;47863;55.766;37.672;2023-11-18T02:43:35;100825.47;;;-5.78;74.37
61906;BME280;47863;55.766;37.672;2023-11-18T02:46:03;100822.94;;;-5.83;74.60
61906;BME280;47863;55.766;37.672;2023-11-18T02:48:30;100813.53;;;-5.88;74.74
61906;BME280;47863;55.766;37.672;2023-11-18T02:50:58;100821.34;;;-5.88;74.94
61906;BME280;47863;55.766;37.672;2023-11-18T02:53:25;100802.44;;;-5.98;74.34
61906;BME280;47863;55.766;37.672;2023-11-18T02:55:51;100794.69;;;-6.03;74.40
61906;BME280;47863;55.766;37.672;2023-11-18T02:58:20;100793.72;;;-5.97;74.41
61906;BME280;47863;55.766;37.672;2023-11-18T03:00:46;100806.50;;;-5.86;74.10
61906;BME280;47863;55.766;37.672;2023-11-18T03:03:12;100823.88;;;-5.85;74.77
61906;BME280;47863;55.766;37.672;2023-11-18T03:05:39;100816.19;;;-5.91;74.21
61906;BME280;47863;55.766;37.672;2023-11-18T03:08:05;100812.06;;;-6.00;74.80
61906;BME280;47863;55.766;37.672;2023-11-18T03:10:33;100837.88;;;-5.89;74.85
61906;BME280;47863;55.766;37.672;2023-11-18T03:13:00;100835.25;;;-5.88;74.84
61906;BME280;47863;55.766;37.672;2023-11-18T03:15:27;100835.13;;;-5.82;74.74
61906;BME280;47863;55.766;37.672;2023-11-18T03:17:53;100825.47;;;-5.78;75.07
61906;BME280;47863;55.766;37.672;2023-11-18T03:20:21;100822.91;;;-5.81;74.65
61906;BME280;47863;55.766;37.672;2023-11-18T03:22:49;100815.09;;;-5.81;75.11
61906;BME280;47863;55.766;37.672;2023-11-18T03:25:17;100834.94;;;-5.72;75.13
61906;BME280;47863;55.766;37.672;2023-11-18T03:27:43;100843.59;;;-5.70;74.97
61906;BME280;47863;55.766;37.672;2023-11-18T03:30:12;100848.81;;;-5.70;75.12
61906;BME280;47863;55.766;37.672;2023-11-18T03:32:39;100847.09;;;-5.73;74.84
61906;BME280;47863;55.766;37.672;2023-11-18T03:35:08;100808.41;;;-5.94;74.89
61906;BME280;47863;55.766;37.672;2023-11-18T03:37:40;100827.25;;;-5.80;75.38
61906;BME280;47863;55.766;37.672;2023-11-18T03:40:13;100836.72;;;-5.74;75.13
61906;BME280;47863;55.766;37.672;2023-11-18T03:42:42;100829.75;;;-5.75;75.07
61906;BME280;47863;55.766;37.672;2023-11-18T03:45:08;100832.25;;;-5.71;75.13
61906;BME280;47863;55.766;37.672;2023-11-18T03:47:35;100830.47;;;-5.67;75.31
61906;BME280;47863;55.766;37.672;2023-11-18T03:50:00;100831.22;;;-5.62;75.25
61906;BME280;47863;55.766;37.672;2023-11-18T03:52:26;100832.09;;;-5.62;75.33
61906;BME280;47863;55.766;37.672;2023-11-18T03:54:53;100838.06;;;-5.56;74.99
61906;BME280;47863;55.766;37.672;2023-11-18T03:57:21;100840.63;;;-5.55;75.08
61906;BME280;47863;55.766;37.672;2023-11-18T03:59:46;100832.03;;;-5.59;74.88
61906;BME280;47863;55.766;37.672;2023-11-18T04:02:12;100830.41;;;-5.64;75.17
61906;BME280;47863;55.766;37.672;2023-11-18T04:04:38;100819.22;;;-5.71;74.96
61906;BME280;47863;55.766;37.672;2023-11-18T04:07:04;100819.06;;;-5.65;74.93
61906;BME280;47863;55.766;37.672;2023-11-18T04:09:30;100836.19;;;-5.51;75.00
61906;BME280;47863;55.766;37.672;2023-11-18T04:11:55;100774.31;;;-5.87;75.44
61906;BME280;47863;55.766;37.672;2023-11-18T04:14:21;100838.84;;;-5.53;75.33
61906;BME280;47863;55.766;37.672;2023-11-18T04:16:48;100843.31;;;-5.58;75.33
61906;BME280;47863;55.766;37.672;2023-11-18T04:19:14;100836.31;;;-5.56;75.10
61906;BME280;47863;55.766;37.672;2023-11-18T04:21:40;100841.50;;;-5.54;75.13
61906;BME280;47863;55.766;37.672;2023-11-18T04:24:06;100837.25;;;-5.59;75.72
61906;BME280;47863;55.766;37.672;2023-11-18T04:26:32;100847.56;;;-5.52;75.19
61906;BME280;47863;55.766;37.672;2023-11-18T04:28:58;100838.00;;;-5.55;75.61
61906;BME280;47863;55.766;37.672;2023-11-18T04:31:26;100846.59;;;-5.48;75.10
61906;BME280;47863;55.766;37.672;2023-11-18T04:33:52;100823.31;;;-5.59;74.97
61906;BME280;47863;55.766;37.672;2023-11-18T04:36:18;100843.03;;;-5.46;75.12
61906;BME280;47863;55.766;37.672;2023-11-18T04:38:44;100787.28;;;-5.82;75.06
61906;BME280;47863;55.766;37.672;2023-11-18T04:41:10;100824.28;;;-5.63;75.14
61906;BME280;47863;55.766;37.672;2023-11-18T04:43:35;100817.34;;;-5.64;75.23
61906;BME280;47863;55.766;37.672;2023-11-18T04:46:01;100798.31;;;-5.69;75.35
61906;BME280;47863;55.766;37.672;2023-11-18T04:48:26;100843.03;;;-5.46;74.83
61906;BME280;47863;55.766;37.672;2023-11-18T04:50:52;100833.50;;;-5.47;75.14
61906;BME280;47863;55.766;37.672;2023-11-18T04:53:18;100841.16;;;-5.39;75.45
61906;BME280;47863;55.766;37.672;2023-11-18T04:55:43;100837.78;;;-5.43;75.26
61906;BME280;47863;55.766;37.672;2023-11-18T04:58:10;100843.66;;;-5.33;75.02
61906;BME280;47863;55.766;37.672;2023-11-18T05:00:39;100846.16;;;-5.28;74.89
61906;BME280;47863;55.766;37.672;2023-11-18T05:03:05;100838.25;;;-5.25;75.35
61906;BME280;47863;55.766;37.672;2023-11-18T05:05:41;100849.38;;;-5.17;75.03
61906;BME280;47863;55.766;37.672;2023-11-18T05:08:07;100799.31;;;-5.36;75.18
61906;BME280;47863;55.766;37.672;2023-11-18T05:10:49;100836.19;;;-5.12;74.75
61906;BME280;47863;55.766;37.672;2023-11-18T05:13:16;100842.31;;;-5.13;74.95
61906;BME280;47863;55.766;37.672;2023-11-18T05:15:43;100844.00;;;-5.11;74.84
61906;BME280;47863;55.766;37.672;2023-11-18T05:18:13;100846.53;;;-5.08;75.10
61906;BME280;47863;55.766;37.672;2023-11-18T05:20:42;100843.91;;;-5.08;74.83
61906;BME280;47863;55.766;37.672;2023-11-18T05:23:08;100818.09;;;-5.20;74.72
61906;BME280;47863;55.766;37.672;2023-11-18T05:25:39;100856.75;;;-4.97;75.23
61906;BME280;47863;55.766;37.672;2023-11-18T05:28:05;100850.50;;;-4.91;74.77
61906;BME280;47863;55.766;37.672;2023-11-18T05:30:35;100857.41;;;-4.89;74.88
61906;BME280;47863;55.766;37.672;2023-11-18T05:33:02;100853.81;;;-4.85;74.75
61906;BME280;47863;55.766;37.672;2023-11-18T05:35:31;100854.63;;;-4.81;75.26
61906;BME280;47863;55.766;37.672;2023-11-18T05:37:57;100846.78;;;-4.81;74.79
61906;BME280;47863;55.766;37.672;2023-11-18T05:40:22;100855.25;;;-4.71;75.16
61906;BME280;47863;55.766;37.672;2023-11-18T05:42:48;100853.47;;;-4.69;74.90
61906;BME280;47863;55.766;37.672;2023-11-18T05:45:18;100850.81;;;-4.68;74.98
61906;BME280;47863;55.766;37.672;2023-11-18T05:47:56;100861.00;;;-4.59;74.68
61906;BME280;47863;55.766;37.672;2023-11-18T05:50:23;100863.59;;;-4.57;74.82
61906;BME280;47863;55.766;37.672;2023-11-18T05:52:53;100831.81;;;-4.76;74.77
61906;BME280;47863;55.766;37.672;2023-11-18T05:55:19;100864.25;;;-4.49;74.85
61906;BME280;47863;55.766;37.672;2023-11-18T05:57:45;100874.66;;;-4.46;74.94
61906;BME280;47863;55.766;37.672;2023-11-18T06:00:14;100863.25;;;-4.10;75.21
61906;BME280;47863;55.766;37.672;2023-11-18T06:02:44;100877.09;;;-3.44;74.85
61906;BME280;47863;55.766;37.672;2023-11-18T06:05:10;100872.34;;;-2.76;74.41
61906;BME280;47863;55.766;37.672;2023-11-18T06:07:38;100870.19;;;-2.12;73.91
61906;BME280;47863;55.766;37.672;2023-11-18T06:10:06;100868.47;;;-1.64;73.18
61906;BME280;47863;55.766;37.672;2023-11-18T06:12:32;100879.34;;;-1.26;73.13
61906;BME280;47863;55.766;37.672;2023-11-18T06:14:59;100844.47;;;-1.09;72.68
61906;BME280;47863;55.766;37.672;2023-11-18T06:17:24;100872.41;;;-0.63;71.93
61906;BME280;47863;55.766;37.672;2023-11-18T06:19:50;100879.22;;;-0.36;71.56
61906;BME280;47863;55.766;37.672;2023-11-18T06:22:16;100870.13;;;-0.09;71.30
61906;BME280;47863;55.766;37.672;2023-11-18T06:24:41;100864.06;;;0.10;71.63
61906;BME280;47863;55.766;37.672;2023-11-18T06:27:09;100859.84;;;0.26;71.72
61906;BME280;47863;55.766;37.672;2023-11-18T06:29:35;100860.91;;;0.41;71.90
61906;BME280;47863;55.766;37.672;2023-11-18T06:32:01;100874.53;;;0.51;71.71
61906;BME280;47863;55.766;37.672;2023-11-18T06:34:27;100880.78;;;0.86;71.82
61906;BME280;47863;55.766;37.672;2023-11-18T06:36:53;100872.63;;;1.29;71.97
61906;BME280;47863;55.766;37.672;2023-11-18T06:39:19;100874.66;;;1.76;71.91
61906;BME280;47863;55.766;37.672;2023-11-18T06:41:55;100877.88;;;2.16;71.73
61906;BME280;47863;55.766;37.672;2023-11-18T06:44:21;100872.31;;;2.38;71.66
61906;BME280;47863;55.766;37.672;2023-11-18T06:46:49;100880.47;;;2.67;71.80
61906;BME280;47863;55.766;37.672;2023-11-18T06:49:16;100881.25;;;2.69;71.15
61906;BME280;47863;55.766;37.672;2023-11-18T06:51:42;100871.59;;;2.34;71.82
61906;BME280;47863;55.766;37.672;2023-11-18T06:54:08;100891.03;;;2.17;71.62
61906;BME280;47863;55.766;37.672;2023-11-18T06:56:36;100895.28;;;2.53;71.58
61906;BME280;47863;55.766;37.672;2023-11-18T06:59:09;100892.94;;;3.12;71.03
61906;BME280;47863;55.766;37.672;2023-11-18T07:01:39;100887.84;;;3.55;70.07
61906;BME280;47863;55.766;37.672;2023-11-18T07:04:09;100874.84;;;3.51;70.81
61906;BME280;47863;55.766;37.672;2023-11-18T07:06:36;100895.38;;;3.77;70.60
61906;BME280;47863;55.766;37.672;2023-11-18T07:09:06;100884.03;;;3.75;70.14
61906;BME280;47863;55.766;37.672;2023-11-18T07:11:41;100891.28;;;4.16;69.59
61906;BME280;47863;55.766;37.672;2023-11-18T07:14:08;100885.13;;;4.73;69.07
61906;BME280;47863;55.766;37.672;2023-11-18T07:16:35;100832.03;;;4.73;68.83
61906;BME280;47863;55.766;37.672;2023-11-18T07:19:01;100895.81;;;5.28;68.60
61906;BME280;47863;55.766;37.672;2023-11-18T07:21:29;100867.16;;;5.06;68.81
61906;BME280;47863;55.766;37.672;2023-11-18T07:23:54;100878.28;;;5.25;68.27
61906;BME280;47863;55.766;37.672;2023-11-18T07:26:20;100836.56;;;5.13;68.56
61906;BME280;47863;55.766;37.672;2023-11-18T07:28:46;100866.38;;;5.58;67.89
61906;BME280;47863;55.766;37.672;2023-11-18T07:31:12;100871.31;;;5.90;67.81
61906;BME280;47863;55.766;37.672;2023-11-18T07:33:37;100882.09;;;6.01;67.56
61906;BME280;47863;55.766;37.672;2023-11-18T07:36:03;100884.56;;;6.04;67.43
61906;BME280;47863;55.766;37.672;2023-11-18T07:38:31;100866.41;;;5.84;66.74
61906;BME280;47863;55.766;37.672;2023-11-18T07:40:59;100889.56;;;6.09;67.31
61906;BME280;47863;55.766;37.672;2023-11-18T07:43:28;100855.41;;;6.03;67.18
61906;BME280;47863;55.766;37.672;2023-11-18T07:45:54;100896.06;;;6.30;67.32
61906;BME280;47863;55.766;37.672;2023-11-18T07:48:20;100891.28;;;6.48;64.95
61906;BME280;47863;55.766;37.672;2023-11-18T07:50:46;100887.13;;;6.94;64.75
61906;BME280;47863;55.766;37.672;2023-11-18T07:53:13;100889.59;;;7.45;64.19
61906;BME280;47863;55.766;37.672;2023-11-18T07:55:39;100873.31;;;7.61;64.73
61906;BME280;47863;55.766;37.672;2023-11-18T07:58:09;100878.38;;;7.88;64.63
61906;BME280;47863;55.766;37.672;2023-11-18T08:00:40;100892.66;;;8.34;64.49
61906;BME280;47863;55.766;37.672;2023-11-18T08:03:07;100895.59;;;8.76;63.95
61906;BME280;47863;55.766;37.672;2023-11-18T08:05:42;100893.44;;;8.81;62.41
61906;BME280;47863;55.766;37.672;2023-11-18T08:08:14;100894.63;;;8.54;63.14
61906;BME280;47863;55.766;37.672;2023-11-18T08:10:43;100904.19;;;8.34;64.38
61906;BME280;47863;55.766;37.672;2023-11-18T08:13:11;100880.09;;;8.01;64.05
61906;BME280;47863;55.766;37.672;2023-11-18T08:15:41;100891.78;;;8.22;64.20
61906;BME280;47863;55.766;37.672;2023-11-18T08:18:07;100898.41;;;8.05;64.10
61906;BME280;47863;55.766;37.672;2023-11-18T08:20:35;100898.31;;;7.71;65.00
61906;BME280;47863;55.766;37.672;2023-11-18T08:23:01;100892.25;;;7.69;65.31
61906;BME280;47863;55.766;37.672;2023-11-18T08:25:27;100863.94;;;7.55;65.26
61906;BME280;47863;55.766;37.672;2023-11-18T08:27:52;100878.28;;;7.54;64.50
61906;BME280;47863;55.766;37.672;2023-11-18T08:30:18;100893.38;;;7.78;64.00
61906;BME280;47863;55.766;37.672;2023-11-18T08:32:46;100864.19;;;7.99;63.68
61906;BME280;47863;55.766;37.672;2023-11-18T08:35:13;100881.50;;;8.40;63.31
61906;BME280;47863;55.766;37.672;2023-11-18T08:37:40;100872.56;;;8.75;61.75
61906;BME280;47863;55.766;37.672;2023-11-18T08:40:07;100868.38;;;9.05;61.90
61906;BME280;47863;55.766;37.672;2023-11-18T08:42:48;100882.91;;;9.23;58.96
61906;BME280;47863;55.766;37.672;2023-11-18T08:45:16;100878.03;;;9.28;60.88
61906;BME280;47863;55.766;37.672;2023-11-18T08:47:43;100826.34;;;9.07;60.97
61906;BME280;47863;55.766;37.672;2023-11-18T08:50:10;100875.22;;;9.62;60.86
61906;BME280;47863;55.766;37.672;2023-11-18T08:52:38;100867.94;;;10.06;60.76
61906;BME280;47863;55.766;37.672;2023-11-18T08:55:09;100875.09;;;10.79;57.54
61906;BME280;47863;55.766;37.672;2023-11-18T08:57:42;100857.84;;;11.70;59.01
61906;BME280;47863;55.766;37.672;2023-11-18T09:00:16;100860.06;;;12.52;58.56
61906;BME280;47863;55.766;37.672;2023-11-18T09:03:02;100865.84;;;13.12;57.51
61906;BME280;47863;55.766;37.672;2023-11-18T09:05:32;100878.38;;;13.67;56.95
61906;BME280;47863;55.766;37.672;2023-11-18T09:07:58;100872.59;;;14.24;55.17
61906;BME280;47863;55.766;37.672;2023-11-18T09:10:26;100865.13;;;14.70;54.03
61906;BME280;47863;55.766;37.672;2023-11-18T09:12:54;100856.94;;;14.96;54.01
61906;BME280;47863;55.766;37.672;2023-11-18T09:15:20;100876.66;;;14.88;54.01
61906;BME280;47863;55.766;37.672;2023-11-18T09:17:48;100874.22;;;13.73;56.13
61906;BME280;47863;55.766;37.672;2023-11-18T09:20:14;100876.47;;;12.58;57.01
61906;BME280;47863;55.766;37.672;2023-11-18T09:22:46;100850.91;;;11.97;57.19
61906;BME280;47863;55.766;37.672;2023-11-18T09:25:12;100861.75;;;12.15;57.06
61906;BME280;47863;55.766;37.672;2023-11-18T09:27:37;100862.59;;;12.16;56.59
61906;BME280;47863;55.766;37.672;2023-11-18T09:30:05;100860.50;;;11.80;57.19
61906;BME280;47863;55.766;37.672;2023-11-18T09:32:42;100859.69;;;11.50;57.30
61906;BME280;47863;55.766;37.672;2023-11-18T09:35:08;100844.97;;;11.74;57.11
61906;BME280;47863;55.766;37.672;2023-11-18T09:37:35;100871.44;;;12.36;55.41
61906;BME280;47863;55.766;37.672;2023-11-18T09:40:04;100861.19;;;12.86;55.04
61906;BME280;47863;55.766;37.672;2023-11-18T09:42:37;100867.78;;;13.47;54.22
61906;BME280;47863;55.766;37.672;2023-11-18T09:45:05;100880.69;;;14.24;52.79
61906;BME280;47863;55.766;37.672;2023-11-18T09:47:36;100872.31;;;15.04;51.74
61906;BME280;47863;55.766;37.672;2023-11-18T09:50:08;100870.09;;;15.66;48.87
61906;BME280;47863;55.766;37.672;2023-11-18T09:52:42;100849.31;;;16.16;51.02
61906;BME280;47863;55.766;37.672;2023-11-18T09:55:16;100858.94;;;16.75;43.88
61906;BME280;47863;55.766;37.672;2023-11-18T09:57:51;100858.34;;;17.27;47.37
61906;BME280;47863;55.766;37.672;2023-11-18T10:00:23;100844.47;;;17.53;49.13
61906;BME280;47863;55.766;37.672;2023-11-18T10:02:58;100867.22;;;17.90;49.00
61906;BME280;47863;55.766;37.672;2023-11-18T10:05:28;100868.88;;;18.14;46.89
61906;BME280;47863;55.766;37.672;2023-11-18T10:07:56;100865.09;;;18.38;48.16
61906;BME280;47863;55.766;37.672;2023-11-18T10:10:24;100870.88;;;18.65;47.08
61906;BME280;47863;55.766;37.672;2023-11-18T10:12:52;100862.91;;;18.78;46.78
61906;BME280;47863;55.766;37.672;2023-11-18T10:15:21;100838.13;;;18.67;45.18
61906;BME280;47863;55.766;37.672;2023-11-18T10:17:50;100856.47;;;18.65;46.39
61906;BME280;47863;55.766;37.672;2023-11-18T10:20:44;100857.03;;;18.45;45.90
61906;BME280;47863;55.766;37.672;2023-11-18T10:23:11;100859.47;;;18.25;47.20
61906;BME280;47863;55.766;37.672;2023-11-18T10:25:41;100857.53;;;17.96;47.96
61906;BME280;47863;55.766;37.672;2023-11-18T10:28:28;100849.66;;;17.40;48.66
61906;BME280;47863;55.766;37.672;2023-11-18T10:30:58;100856.69;;;16.95;49.44
61906;BME280;47863;55.766;37.672;2023-11-18T10:33:27;100835.59;;;16.74;46.90
61906;BME280;47863;55.766;37.672;2023-11-18T10:35:59;100847.72;;;16.94;48.74
61906;BME280;47863;55.766;37.672;2023-11-18T10:38:29;100844.44;;;16.68;47.04
61906;BME280;47863;55.766;37.672;2023-11-18T10:40:57;100849.22;;;16.57;46.43
61906;BME280;47863;55.766;37.672;2023-11-18T10:43:24;100820.72;;;16.30;44.24
61906;BME280;47863;55.766;37.672;2023-11-18T10:45:52;100847.22;;;16.43;45.25
61906;BME280;47863;55.766;37.672;2023-11-18T10:48:18;100852.50;;;16.20;44.44
61906;BME280;47863;55.766;37.672;2023-11-18T10:50:47;100850.16;;;15.67;45.65
61906;BME280;47863;55.766;37.672;2023-11-18T10:53:17;100854.94;;;15.06;46.78
61906;BME280;47863;55.766;37.672;2023-11-18T10:55:44;100852.16;;;14.74;46.72
61906;BME280;47863;55.766;37.672;2023-11-18T10:58:10;100858.69;;;14.11;47.94
61906;BME280;47863;55.766;37.672;2023-11-18T11:00:49;100840.84;;;13.29;47.82
61906;BME280;47863;55.766;37.672;2023-11-18T11:03:16;100819.28;;;12.94;49.31
61906;BME280;47863;55.766;37.672;2023-11-18T11:05:44;100851.56;;;13.12;49.45
61906;BME280;47863;55.766;37.672;2023-11-18T11:08:14;100847.66;;;13.06;47.75
61906;BME280;47863;55.766;37.672;2023-11-18T11:10:44;100826.34;;;13.13;48.35
61906;BME280;47863;55.766;37.672;2023-11-18T11:13:11;100843.75;;;13.54;47.59
61906;BME280;47863;55.766;37.672;2023-11-18T11:15:42;100828.28;;;13.74;46.18
61906;BME280;47863;55.766;37.672;2023-11-18T11:18:12;100817.31;;;13.94;46.64
61906;BME280;47863;55.766;37.672;2023-11-18T11:20:47;100837.28;;;14.35;43.59
61906;BME280;47863;55.766;37.672;2023-11-18T11:23:55;100855.63;;;14.58;42.27
61906;BME280;47863;55.766;37.672;2023-11-18T11:26:28;100847.53;;;14.58;41.34
61906;BME280;47863;55.766;37.672;2023-11-18T11:34:56;100852.75;;;14.33;45.49
61906;BME280;47863;55.766;37.672;2023-11-18T11:37:26;100828.38;;;13.82;46.18
61906;BME280;47863;55.766;37.672;2023-11-18T11:39:53;100845.00;;;13.60;46.71
61906;BME280;47863;55.766;37.672;2023-11-18T11:42:20;100854.31;;;13.29;46.05
61906;BME280;47863;55.766;37.672;2023-11-18T11:44:48;100848.44;;;12.88;47.25
61906;BME280;47863;55.766;37.672;2023-11-18T11:47:15;100824.97;;;12.25;47.11
61906;BME280;47863;55.766;37.672;2023-11-18T11:49:47;100856.53;;;11.84;47.09
61906;BME280;47863;55.766;37.672;2023-11-18T11:52:19;100851.63;;;11.60;46.79
61906;BME280;47863;55.766;37.672;2023-11-18T11:54:56;100850.09;;;10.68;47.85
61906;BME280;47863;55.766;37.672;2023-11-18T11:57:29;100859.06;;;9.64;49.59
61906;BME280;47863;55.766;37.672;2023-11-18T12:00:09;100849.84;;;8.81;50.15
61906;BME280;47863;55.766;37.672;2023-11-18T12:02:51;100838.06;;;7.69;50.42
61906;BME280;47863;55.766;37.672;2023-11-18T12:05:24;100815.56;;;6.52;52.30
61906;BME280;47863;55.766;37.672;2023-11-18T12:07:53;100851.47;;;5.95;53.54
61906;BME280;47863;55.766;37.672;2023-11-18T12:10:26;100858.91;;;5.23;53.18
61906;BME280;47863;55.766;37.672;2023-11-18T12:13:09;100860.50;;;4.57;54.67
61906;BME280;47863;55.766;37.672;2023-11-18T12:18:13;100849.41;;;3.48;55.30
61906;BME280;47863;55.766;37.672;2023-11-18T12:20:44;100859.13;;;3.02;55.42
61906;BME280;47863;55.766;37.672;2023-11-18T12:23:14;100859.81;;;2.57;55.63
61906;BME280;47863;55.766;37.672;2023-11-18T12:25:41;100851.53;;;2.14;55.80
61906;BME280;47863;55.766;37.672;2023-11-18T12:28:08;100810.72;;;1.52;55.42
61906;BME280;47863;55.766;37.672;2023-11-18T12:33:02;100852.47;;;1.09;55.33
61906;BME280;47863;55.766;37.672;2023-11-18T12:41:33;100860.78;;;0.82;53.32
61906;BME280;47863;55.766;37.672;2023-11-18T12:47:05;100856.56;;;0.59;52.91
61906;BME280;47863;55.766;37.672;2023-11-18T12:49:41;100856.84;;;0.34;54.36
61906;BME280;47863;55.766;37.672;2023-11-18T12:52:08;100859.06;;;0.04;54.24
61906;BME280;47863;55.766;37.672;2023-11-18T12:54:35;100824.31;;;-0.46;54.64
61906;BME280;47863;55.766;37.672;2023-11-18T12:57:10;100867.16;;;-0.42;54.96
61906;BME280;47863;55.766;37.672;2023-11-18T12:59:40;100873.06;;;-0.57;54.97
61906;BME280;47863;55.766;37.672;2023-11-18T13:02:12;100865.03;;;-0.75;55.25
61906;BME280;47863;55.766;37.672;2023-11-18T13:04:48;100867.44;;;-0.91;55.29
61906;BME280;47863;55.766;37.672;2023-11-18T13:07:17;100869.72;;;-1.05;55.26
61906;BME280;47863;55.766;37.672;2023-11-18T13:09:44;100822.09;;;-1.42;55.35